Terminal Aerodrome Forecast
Issued by NWS Shreveport, LA

Home | Current Version | Previous Version | Text Only | Print | Product List | Glossary On
Versions: 1 2 3 4 5 6 7 8 9 10 11 12 13 14 15 16 17 18
192
FTUS44 KSHV 300547
TAFMLU
TAF
KMLU 300547Z 3006/3106 VRB03KT P6SM FEW050 SCT150 SCT250
      TEMPO 3011/3013 5SM BR
     FM301500 04004KT P6SM SCT050 SCT250
     FM302100 07005KT P6SM BKN050 BKN150=

USA.gov is the U.S. government's official web portal to all federal, state and local government web resources and services.